createdAt,value
2018-05-31T05:49:43.841Z,21.43
2018-05-31T05:50:43.704Z,21.46
2018-05-31T05:51:43.622Z,21.45
2018-05-31T05:52:43.545Z,21.52
2018-05-31T05:53:43.467Z,21.54
2018-05-31T05:54:43.389Z,21.51
2018-05-31T05:55:43.313Z,21.50
2018-05-31T05:56:43.235Z,21.46
2018-05-31T05:57:43.160Z,21.60
2018-05-31T05:58:43.082Z,21.55
2018-05-31T05:59:43.012Z,21.64
2018-05-31T06:00:42.937Z,21.64
2018-05-31T06:01:42.860Z,21.70
2018-05-31T06:02:42.786Z,21.70
2018-05-31T06:03:42.711Z,21.72
2018-05-31T06:04:42.639Z,21.69
2018-05-31T06:05:42.566Z,21.77
2018-05-31T06:06:42.492Z,21.79
2018-05-31T06:07:42.419Z,21.80
2018-05-31T06:08:42.347Z,21.82
2018-05-31T06:09:42.272Z,21.85
2018-05-31T06:10:42.204Z,21.92
2018-05-31T06:11:42.128Z,21.95
2018-05-31T06:12:42.064Z,22.00
2018-05-31T06:13:42.039Z,22.08
2018-05-31T06:14:41.984Z,22.07
2018-05-31T06:15:41.844Z,22.13
2018-05-31T06:16:41.768Z,22.13
2018-05-31T06:17:41.700Z,21.99
2018-05-31T06:18:41.628Z,22.17
2018-05-31T06:19:41.603Z,22.17
2018-05-31T06:20:41.487Z,22.17
2018-05-31T06:21:41.413Z,22.15
2018-05-31T06:22:41.341Z,22.25
2018-05-31T06:23:41.271Z,22.35
2018-05-31T06:24:41.199Z,22.36
2018-05-31T06:25:41.131Z,22.38
2018-05-31T06:26:41.064Z,22.26
2018-05-31T06:27:40.987Z,22.33
2018-05-31T06:28:40.918Z,22.35
2018-05-31T06:29:40.873Z,22.48
2018-05-31T06:30:40.773Z,22.47
2018-05-31T06:31:41.479Z,22.51
2018-05-31T06:32:40.643Z,22.60
2018-05-31T06:33:40.565Z,22.60
2018-05-31T06:34:40.493Z,22.65
2018-05-31T06:35:40.424Z,22.62
2018-05-31T06:36:40.362Z,22.72
2018-05-31T06:37:40.285Z,22.76
2018-05-31T06:38:40.213Z,22.83
2018-05-31T06:39:40.146Z,22.81
2018-05-31T06:40:40.071Z,22.78
2018-05-31T06:41:40.002Z,22.81
2018-05-31T06:42:39.932Z,22.90
2018-05-31T06:43:39.867Z,22.90
2018-05-31T06:44:39.792Z,22.91
2018-05-31T06:45:39.726Z,22.91
2018-05-31T06:46:39.653Z,23.00
2018-05-31T06:47:39.582Z,23.03
2018-05-31T06:48:39.513Z,23.05
2018-05-31T06:49:39.441Z,23.12
2018-05-31T06:50:39.372Z,23.09
2018-05-31T06:51:39.302Z,23.12
2018-05-31T06:52:39.234Z,23.08
2018-05-31T06:53:39.168Z,23.23
2018-05-31T06:54:39.097Z,23.23
2018-05-31T06:55:39.023Z,23.25
2018-05-31T06:56:38.954Z,23.32
2018-05-31T06:57:38.883Z,23.41
2018-05-31T06:58:38.825Z,23.32
2018-05-31T06:59:38.748Z,23.37
2018-05-31T07:00:38.675Z,23.39
2018-05-31T07:01:38.607Z,23.51
2018-05-31T07:02:38.534Z,23.44
2018-05-31T07:03:38.465Z,23.50
2018-05-31T07:04:38.414Z,23.55
2018-05-31T07:05:38.327Z,23.50
2018-05-31T07:06:38.258Z,23.54
2018-05-31T07:07:38.190Z,23.61
2018-05-31T07:08:38.120Z,23.65
2018-05-31T07:09:38.053Z,23.65
2018-05-31T07:10:37.983Z,23.68
2018-05-31T07:11:37.913Z,23.71
2018-05-31T07:12:37.844Z,23.78
2018-05-31T07:13:37.778Z,23.80
2018-05-31T07:14:37.720Z,23.86
2018-05-31T07:15:37.635Z,23.84
2018-05-31T07:16:37.566Z,23.88
2018-05-31T07:17:37.497Z,23.88
2018-05-31T07:18:37.428Z,23.93
2018-05-31T07:19:37.359Z,23.87
2018-05-31T07:20:37.291Z,23.86
2018-05-31T07:21:37.219Z,23.91
2018-05-31T07:22:37.151Z,23.84
2018-05-31T07:23:37.081Z,23.91
2018-05-31T07:24:37.015Z,23.91
2018-05-31T07:25:36.949Z,23.95
2018-05-31T07:26:36.881Z,23.93
2018-05-31T07:27:36.807Z,24.05
2018-05-31T07:28:36.738Z,24.02
2018-05-31T07:29:36.671Z,24.05
2018-05-31T07:30:36.600Z,24.14
2018-05-31T07:31:36.532Z,24.13
2018-05-31T07:32:36.469Z,24.13
2018-05-31T07:33:36.397Z,24.16
2018-05-31T07:34:36.332Z,24.14
2018-05-31T07:35:36.258Z,24.30
2018-05-31T07:36:36.202Z,24.26
2018-05-31T07:37:36.123Z,24.39
2018-05-31T07:38:36.057Z,24.30
2018-05-31T07:39:35.985Z,24.30
2018-05-31T07:40:35.910Z,24.35
2018-05-31T07:41:35.842Z,24.38
2018-05-31T07:42:35.774Z,24.36
2018-05-31T07:43:35.705Z,24.50
2018-05-31T07:44:35.640Z,24.55
2018-05-31T07:45:35.566Z,24.51
2018-05-31T07:46:35.498Z,24.51
2018-05-31T07:47:35.429Z,24.61
2018-05-31T07:48:35.361Z,24.51
2018-05-31T07:49:35.293Z,24.57
2018-05-31T07:50:35.221Z,24.54
2018-05-31T07:51:35.154Z,24.54
2018-05-31T07:52:35.086Z,24.61
2018-05-31T07:53:35.018Z,24.70
2018-05-31T07:54:34.950Z,24.66
2018-05-31T07:55:34.885Z,24.69
2018-05-31T07:56:34.814Z,24.68
2018-05-31T07:57:34.741Z,24.68
2018-05-31T07:58:34.673Z,24.80
2018-05-31T07:59:34.606Z,24.78
2018-05-31T08:00:34.537Z,24.69
2018-05-31T08:01:34.471Z,24.78
2018-05-31T08:02:34.399Z,24.84
2018-05-31T08:03:34.331Z,24.89
2018-05-31T08:04:34.270Z,24.92
2018-05-31T08:05:34.196Z,24.95
2018-05-31T08:06:34.123Z,24.93
2018-05-31T08:07:34.058Z,25.04
2018-05-31T08:08:33.987Z,25.04
2018-05-31T08:09:33.921Z,25.08
2018-05-31T08:10:33.853Z,25.08
2018-05-31T08:11:33.783Z,25.17
2018-05-31T08:12:33.733Z,25.10
2018-05-31T08:13:33.647Z,25.16
2018-05-31T08:14:33.576Z,25.25
2018-05-31T08:15:33.511Z,25.26
2018-05-31T08:16:33.445Z,25.22
2018-05-31T08:17:33.373Z,25.28
2018-05-31T08:18:33.303Z,25.23
2018-05-31T08:19:33.237Z,25.28
2018-05-31T08:20:33.169Z,25.28
2018-05-31T08:21:33.103Z,25.29
2018-05-31T08:22:33.031Z,25.36
2018-05-31T08:23:32.961Z,25.35
2018-05-31T08:24:32.896Z,25.31
2018-05-31T08:25:32.828Z,25.40
2018-05-31T08:26:32.758Z,25.35
2018-05-31T08:27:32.694Z,25.47
2018-05-31T08:28:32.629Z,25.44
2018-05-31T08:29:32.555Z,25.43
2018-05-31T08:30:32.489Z,25.53
2018-05-31T08:31:32.447Z,25.54
2018-05-31T08:32:32.350Z,25.48
2018-05-31T08:33:32.282Z,25.53
2018-05-31T08:34:32.216Z,25.50
2018-05-31T08:35:32.146Z,25.55
2018-05-31T08:36:32.080Z,25.62
2018-05-31T08:37:32.009Z,25.60
2018-05-31T08:38:31.948Z,25.65
2018-05-31T08:39:31.876Z,25.65
2018-05-31T08:40:31.805Z,25.68
2018-05-31T08:41:31.740Z,25.73
2018-05-31T08:42:31.673Z,25.73
2018-05-31T08:43:31.601Z,25.72
2018-05-31T08:44:31.534Z,25.70
2018-05-31T08:45:31.465Z,25.75
2018-05-31T08:46:31.396Z,25.81
2018-05-31T08:47:31.330Z,25.78
2018-05-31T08:48:31.272Z,25.83
2018-05-31T08:49:31.194Z,25.84
2018-05-31T08:50:31.126Z,25.87
2018-05-31T08:51:31.061Z,25.88
2018-05-31T08:52:30.994Z,25.88
2018-05-31T08:53:30.922Z,25.83
2018-05-31T08:54:30.853Z,25.78
2018-05-31T08:55:30.786Z,25.77
2018-05-31T08:56:30.725Z,25.78
2018-05-31T08:57:30.666Z,25.77
2018-05-31T08:58:30.590Z,25.84
2018-05-31T08:59:30.516Z,25.80
2018-05-31T09:00:30.449Z,25.87
2018-05-31T09:01:30.383Z,25.85
2018-05-31T09:02:30.311Z,25.93
2018-05-31T09:03:30.243Z,25.91
2018-05-31T09:04:30.175Z,26.00
2018-05-31T09:05:30.108Z,25.99
2018-05-31T09:06:30.039Z,26.00
2018-05-31T09:07:29.976Z,25.98
2018-05-31T09:08:29.907Z,25.99
2018-05-31T09:09:29.882Z,26.00
2018-05-31T09:10:29.767Z,26.03
2018-05-31T09:11:29.703Z,25.96
2018-05-31T09:12:29.655Z,25.98
2018-05-31T09:13:29.566Z,25.98
2018-05-31T09:14:29.500Z,25.96
2018-05-31T09:15:29.433Z,26.07
2018-05-31T09:16:29.362Z,26.00
2018-05-31T09:17:29.294Z,26.00
2018-05-31T09:18:29.226Z,26.07
2018-05-31T09:19:29.166Z,26.15
2018-05-31T09:20:29.091Z,26.23
2018-05-31T09:21:29.023Z,26.19
2018-05-31T09:22:28.954Z,26.21
2018-05-31T09:23:28.939Z,26.25
2018-05-31T09:24:28.820Z,26.31
2018-05-31T09:25:28.750Z,26.31
2018-05-31T09:26:28.686Z,26.37
2018-05-31T09:27:28.616Z,26.31
2018-05-31T09:28:28.567Z,26.31
2018-05-31T09:29:28.481Z,26.31
2018-05-31T09:30:28.415Z,26.37
2018-05-31T09:31:28.346Z,26.41
2018-05-31T09:32:28.275Z,26.36
2018-05-31T09:33:28.209Z,26.47
2018-05-31T09:34:28.158Z,26.41
2018-05-31T09:35:28.074Z,26.47
2018-05-31T09:36:28.007Z,26.51
2018-05-31T09:37:27.938Z,26.44
2018-05-31T09:38:27.881Z,26.48
2018-05-31T09:39:27.947Z,26.53
2018-05-31T09:40:27.739Z,26.60
2018-05-31T09:41:27.667Z,26.58
2018-05-31T09:42:27.604Z,26.59
2018-05-31T09:43:27.532Z,26.56
2018-05-31T09:44:27.468Z,26.56
2018-05-31T09:45:27.399Z,26.55
2018-05-31T09:46:27.329Z,26.68
2018-05-31T09:47:27.262Z,26.71
2018-05-31T09:48:27.194Z,26.66
2018-05-31T09:49:27.133Z,26.74
2018-05-31T09:50:27.061Z,26.73
2018-05-31T09:51:26.994Z,26.71
2018-05-31T09:52:26.927Z,26.71
2018-05-31T09:53:26.859Z,26.75
2018-05-31T09:54:26.789Z,26.73
2018-05-31T09:55:26.724Z,26.77
2018-05-31T09:56:26.687Z,26.83
2018-05-31T09:57:26.588Z,26.84
2018-05-31T09:58:26.521Z,26.89
2018-05-31T09:59:26.457Z,26.81
2018-05-31T10:00:26.387Z,26.81
2018-05-31T10:01:26.320Z,26.92
2018-05-31T10:02:26.273Z,26.85
2018-05-31T10:03:26.198Z,26.89
2018-05-31T10:04:26.123Z,26.89
2018-05-31T10:05:26.051Z,26.81
2018-05-31T10:06:25.980Z,26.92
2018-05-31T10:07:25.918Z,27.00
2018-05-31T10:08:25.850Z,27.02
2018-05-31T10:09:25.779Z,27.08
2018-05-31T10:10:25.711Z,27.15
2018-05-31T10:11:25.645Z,27.14
2018-05-31T10:12:25.577Z,27.15
2018-05-31T10:13:25.512Z,27.22
2018-05-31T10:14:25.442Z,27.15
2018-05-31T10:15:25.376Z,27.11
2018-05-31T10:16:25.309Z,27.08
2018-05-31T10:17:25.240Z,27.11
2018-05-31T10:18:25.195Z,27.20
2018-05-31T10:19:25.107Z,27.17
2018-05-31T10:20:25.049Z,27.15
2018-05-31T10:21:24.973Z,27.12
2018-05-31T10:22:24.903Z,27.18
2018-05-31T10:23:24.836Z,27.17
2018-05-31T10:24:24.770Z,27.18
2018-05-31T10:25:24.729Z,27.17
2018-05-31T10:26:24.636Z,27.25
2018-05-31T10:27:24.567Z,27.27
2018-05-31T10:28:24.500Z,27.33
2018-05-31T10:29:24.436Z,27.36
2018-05-31T10:30:24.370Z,27.37
2018-05-31T10:31:24.302Z,27.40
2018-05-31T10:32:24.230Z,27.39
2018-05-31T10:33:24.169Z,27.58
2018-05-31T10:34:24.097Z,27.63
2018-05-31T10:35:24.031Z,27.63
2018-05-31T10:36:23.965Z,27.64
2018-05-31T10:37:23.897Z,27.70
2018-05-31T10:38:23.829Z,27.75
2018-05-31T10:39:23.780Z,27.77
2018-05-31T10:40:23.696Z,27.92
2018-05-31T10:41:23.629Z,27.93
2018-05-31T10:42:23.561Z,27.96
2018-05-31T10:43:23.497Z,28.08
2018-05-31T10:44:23.429Z,28.10
2018-05-31T10:45:23.362Z,28.05
2018-05-31T10:46:23.343Z,28.00
2018-05-31T10:47:23.235Z,28.15
2018-05-31T10:48:23.162Z,28.11
2018-05-31T10:49:23.094Z,28.14
2018-05-31T10:50:23.054Z,28.17
2018-05-31T10:51:22.961Z,28.15
2018-05-31T10:52:22.894Z,28.12
2018-05-31T10:53:22.828Z,28.22
2018-05-31T10:54:22.763Z,28.26
2018-05-31T10:55:22.694Z,28.29
2018-05-31T10:56:22.628Z,28.22
2018-05-31T10:57:22.573Z,28.27
2018-05-31T10:58:22.496Z,28.30
2018-05-31T10:59:22.431Z,28.22
2018-05-31T11:00:22.362Z,28.35
2018-05-31T11:01:22.300Z,28.37
2018-05-31T11:02:22.229Z,28.42
2018-05-31T11:03:22.162Z,28.51
2018-05-31T11:04:22.106Z,28.56
2018-05-31T11:05:22.032Z,28.63
2018-05-31T11:06:21.964Z,28.64
2018-05-31T11:07:21.896Z,28.82
2018-05-31T11:08:21.839Z,28.85
2018-05-31T11:09:21.770Z,28.91
2018-05-31T11:10:21.698Z,28.96
2018-05-31T11:11:21.637Z,29.02
2018-05-31T11:12:21.585Z,29.14
2018-05-31T11:13:21.502Z,29.19
2018-05-31T11:14:21.435Z,29.23
2018-05-31T11:15:21.368Z,29.22
2018-05-31T11:16:21.303Z,29.27
2018-05-31T11:17:21.235Z,29.24
2018-05-31T11:18:21.171Z,29.34
2018-05-31T11:19:21.105Z,29.34
2018-05-31T11:20:21.039Z,29.39
2018-05-31T11:21:20.973Z,29.44
2018-05-31T11:22:20.904Z,29.50
2018-05-31T11:23:20.840Z,29.53
2018-05-31T11:24:20.777Z,29.49
2018-05-31T11:25:20.709Z,29.60
2018-05-31T11:26:20.642Z,29.71
2018-05-31T11:27:20.575Z,29.76
2018-05-31T11:28:20.512Z,29.78
2018-05-31T11:29:20.536Z,29.88
2018-05-31T11:30:20.380Z,29.86
2018-05-31T11:31:20.322Z,29.97
2018-05-31T11:32:20.257Z,29.87
2018-05-31T11:33:20.186Z,29.88
2018-05-31T11:34:20.118Z,29.94
2018-05-31T11:35:20.057Z,30.00
2018-05-31T11:36:19.988Z,29.93
2018-05-31T11:37:19.923Z,29.97
2018-05-31T11:38:19.859Z,29.91
2018-05-31T11:39:19.794Z,29.98
2018-05-31T11:40:19.726Z,30.03
2018-05-31T11:41:19.661Z,30.03
2018-05-31T11:42:19.601Z,30.10
2018-05-31T11:43:19.528Z,30.16
2018-05-31T11:44:19.464Z,30.27
2018-05-31T11:45:19.398Z,30.35
2018-05-31T11:46:19.333Z,30.43
2018-05-31T11:47:19.268Z,30.46
2018-05-31T11:48:19.203Z,30.53
2018-05-31T11:49:19.136Z,30.54
2018-05-31T11:50:19.071Z,30.69
2018-05-31T11:51:19.009Z,30.59
2018-05-31T11:52:18.942Z,30.59
2018-05-31T11:53:18.901Z,30.68
2018-05-31T11:54:18.829Z,30.78
2018-05-31T11:55:18.747Z,30.70
2018-05-31T11:56:18.729Z,30.70
2018-05-31T11:57:18.614Z,30.68
2018-05-31T11:58:18.549Z,30.85
2018-05-31T11:59:18.485Z,30.92
2018-05-31T12:00:18.421Z,30.84
2018-05-31T12:01:18.355Z,30.91
2018-05-31T12:02:18.289Z,31.00
2018-05-31T12:03:18.226Z,30.99
2018-05-31T12:04:18.162Z,31.05
2018-05-31T12:05:18.095Z,31.14
2018-05-31T12:06:18.030Z,31.05
2018-05-31T12:07:17.963Z,31.03
2018-05-31T12:08:17.982Z,31.06
2018-05-31T12:09:17.834Z,31.09
2018-05-31T12:10:17.769Z,31.00
2018-05-31T12:11:17.750Z,31.02
2018-05-31T12:12:17.688Z,30.92
2018-05-31T12:13:17.577Z,30.80
2018-05-31T12:14:17.512Z,30.69
2018-05-31T12:15:17.445Z,30.73
2018-05-31T12:16:17.381Z,30.83
2018-05-31T12:17:17.349Z,30.96
2018-05-31T12:18:17.261Z,30.97
2018-05-31T12:19:17.187Z,31.15
2018-05-31T12:20:17.144Z,31.17
2018-05-31T12:21:17.064Z,31.25
2018-05-31T12:22:16.994Z,31.29
2018-05-31T12:23:16.928Z,31.29
2018-05-31T12:24:16.863Z,31.36
2018-05-31T12:25:16.796Z,31.42
2018-05-31T12:26:16.741Z,31.40
2018-05-31T12:27:16.668Z,31.51
2018-05-31T12:28:16.604Z,31.55
2018-05-31T12:29:16.539Z,31.69
2018-05-31T12:30:16.472Z,31.76
2018-05-31T12:31:16.411Z,31.76
2018-05-31T12:32:16.391Z,31.77
2018-05-31T12:33:16.282Z,31.73
2018-05-31T12:34:16.216Z,31.80
2018-05-31T12:35:16.152Z,31.87
2018-05-31T12:36:16.088Z,31.81
2018-05-31T12:37:16.025Z,31.93
2018-05-31T12:38:15.959Z,31.87
2018-05-31T12:39:15.916Z,31.80
2018-05-31T12:40:15.839Z,31.93
2018-05-31T12:41:15.767Z,31.90
2018-05-31T12:42:15.702Z,31.96
2018-05-31T12:43:15.637Z,31.97
2018-05-31T12:44:15.573Z,32.01
2018-05-31T12:45:15.509Z,31.96
2018-05-31T12:46:15.445Z,31.97
2018-05-31T12:47:15.381Z,31.94
2018-05-31T12:48:15.317Z,32.08
2018-05-31T12:49:15.254Z,32.07
2018-05-31T12:50:15.189Z,32.15
2018-05-31T12:51:15.136Z,32.14
2018-05-31T12:52:15.080Z,32.33
2018-05-31T12:53:14.998Z,32.27
2018-05-31T12:54:14.934Z,32.22
2018-05-31T12:55:14.875Z,32.41
2018-05-31T12:56:14.820Z,32.40
2018-05-31T12:57:14.797Z,32.55
2018-05-31T12:58:14.696Z,32.53
2018-05-31T12:59:14.651Z,32.64
2018-05-31T13:00:14.716Z,32.53
2018-05-31T13:01:14.568Z,32.64
2018-05-31T13:02:14.778Z,32.70
2018-05-31T13:03:14.796Z,32.82
2018-05-31T13:04:14.316Z,33.04
2018-05-31T13:05:14.261Z,33.01
2018-05-31T13:06:14.194Z,33.12
2018-05-31T13:07:14.128Z,33.11
2018-05-31T13:08:14.073Z,33.30
2018-05-31T13:09:14.011Z,33.30
2018-05-31T13:10:13.952Z,33.39
2018-05-31T13:11:13.889Z,33.46
2018-05-31T13:12:13.829Z,33.58
2018-05-31T13:13:13.777Z,33.62
2018-05-31T13:14:13.709Z,33.83
2018-05-31T13:15:13.648Z,33.95
2018-05-31T13:16:13.589Z,34.13
2018-05-31T13:17:13.532Z,34.23
2018-05-31T13:18:13.468Z,34.18
2018-05-31T13:19:13.425Z,34.20
2018-05-31T13:20:13.355Z,34.23
2018-05-31T13:21:13.293Z,34.13
2018-05-31T13:22:13.231Z,34.03
2018-05-31T13:23:13.187Z,33.95
2018-05-31T13:24:13.112Z,33.83
2018-05-31T13:25:13.088Z,33.79
2018-05-31T13:26:12.988Z,33.52
2018-05-31T13:27:12.928Z,33.47
2018-05-31T13:28:12.868Z,33.46
2018-05-31T13:29:12.806Z,33.50
2018-05-31T13:30:12.749Z,33.62
2018-05-31T13:31:12.684Z,33.73
2018-05-31T13:32:12.625Z,33.83
2018-05-31T13:33:12.566Z,33.73
2018-05-31T13:34:12.500Z,33.68
2018-05-31T13:35:12.443Z,33.79
2018-05-31T13:36:12.386Z,33.95
2018-05-31T13:37:12.317Z,33.92
2018-05-31T13:38:12.265Z,34.01
2018-05-31T13:39:12.196Z,33.92
2018-05-31T13:40:12.139Z,34.11
2018-05-31T13:41:12.085Z,34.05
2018-05-31T13:42:12.013Z,34.13
2018-05-31T13:43:12.016Z,34.11
2018-05-31T13:44:11.925Z,34.13
2018-05-31T13:45:11.840Z,34.18
2018-05-31T13:46:11.763Z,34.20
2018-05-31T13:47:11.704Z,34.33
2018-05-31T13:48:11.642Z,34.36
2018-05-31T13:49:11.584Z,34.32
2018-05-31T13:50:11.517Z,34.18
2018-05-31T13:51:11.459Z,34.25
2018-05-31T13:52:11.397Z,34.21
2018-05-31T13:53:11.333Z,34.20
2018-05-31T13:54:11.268Z,34.23
2018-05-31T13:55:11.211Z,34.36
2018-05-31T13:56:11.144Z,34.42
2018-05-31T13:57:11.083Z,34.54
2018-05-31T13:58:11.025Z,34.50
2018-05-31T13:59:10.989Z,34.48
2018-05-31T14:00:10.896Z,34.38
2018-05-31T14:01:10.863Z,34.35
2018-05-31T14:02:10.772Z,34.39
2018-05-31T14:03:10.713Z,34.29
2018-05-31T14:04:10.649Z,34.33
2018-05-31T14:05:10.594Z,34.43
2018-05-31T14:06:10.530Z,34.35
2018-05-31T14:07:10.960Z,34.32
2018-05-31T14:08:10.401Z,34.42
2018-05-31T14:09:10.978Z,34.47
2018-05-31T14:10:10.961Z,34.60
2018-05-31T14:11:10.215Z,34.48
2018-05-31T14:12:10.152Z,34.58
2018-05-31T14:13:10.974Z,34.55
2018-05-31T14:14:10.033Z,34.66
2018-05-31T14:15:09.962Z,34.74
2018-05-31T14:16:10.536Z,34.85
2018-05-31T14:17:09.839Z,34.86
2018-05-31T14:18:10.464Z,34.90
2018-05-31T14:19:09.713Z,35.05
2018-05-31T14:20:10.465Z,34.88
2018-05-31T14:21:09.593Z,34.96
2018-05-31T14:22:09.527Z,34.83
2018-05-31T14:23:10.467Z,34.83
2018-05-31T14:24:09.967Z,34.89
2018-05-31T14:25:09.987Z,34.74
2018-05-31T14:26:09.278Z,34.75
2018-05-31T14:27:09.227Z,34.83
2018-05-31T14:28:09.152Z,34.77
2018-05-31T14:29:09.969Z,34.83
2018-05-31T14:30:09.081Z,34.89
2018-05-31T14:31:08.964Z,34.97
2018-05-31T14:32:08.910Z,35.07
2018-05-31T14:33:08.840Z,35.00
2018-05-31T14:34:08.779Z,35.04
2018-05-31T14:35:09.479Z,35.08
2018-05-31T14:36:09.555Z,35.07
2018-05-31T14:37:08.609Z,35.04
2018-05-31T14:38:08.530Z,35.05
2018-05-31T14:39:08.978Z,35.14
2018-05-31T14:40:08.972Z,35.04
2018-05-31T14:41:08.342Z,34.96
2018-05-31T14:42:08.973Z,34.89
2018-05-31T14:43:08.992Z,34.81
2018-05-31T14:44:08.973Z,34.77
2018-05-31T14:45:08.100Z,34.64
2018-05-31T14:46:08.038Z,34.45
2018-05-31T14:47:08.475Z,34.45
2018-05-31T14:48:07.919Z,34.30
2018-05-31T14:49:08.493Z,34.18
2018-05-31T14:50:07.783Z,34.18
2018-05-31T14:51:08.491Z,34.18
2018-05-31T14:52:07.656Z,33.99
2018-05-31T14:53:07.594Z,33.95
2018-05-31T14:54:07.529Z,33.84
2018-05-31T14:55:07.531Z,33.83
2018-05-31T14:56:07.404Z,33.74
2018-05-31T14:57:07.341Z,33.64
2018-05-31T14:58:07.977Z,33.55
2018-05-31T14:59:07.213Z,33.57
2018-05-31T15:00:07.981Z,33.50
2018-05-31T15:01:07.979Z,33.55
2018-05-31T15:02:07.025Z,33.79
2018-05-31T15:03:06.962Z,33.94
2018-05-31T15:04:07.549Z,34.20
2018-05-31T15:05:06.840Z,34.40
2018-05-31T15:06:06.773Z,34.66
2018-05-31T15:07:06.710Z,34.89
2018-05-31T15:08:06.649Z,34.93
2018-05-31T15:09:06.585Z,34.62
2018-05-31T15:10:06.529Z,34.38
2018-05-31T15:11:06.464Z,34.10
2018-05-31T15:12:06.399Z,34.02
2018-05-31T15:13:06.368Z,33.81
2018-05-31T15:14:06.284Z,33.79
2018-05-31T15:15:06.213Z,33.71
2018-05-31T15:16:06.986Z,33.64
2018-05-31T15:17:06.986Z,33.42
2018-05-31T15:18:06.078Z,33.32
2018-05-31T15:19:05.964Z,33.12
2018-05-31T15:20:05.959Z,33.11
2018-05-31T15:21:06.489Z,33.09
2018-05-31T15:22:06.484Z,32.97
2018-05-31T15:23:05.712Z,32.95
2018-05-31T15:24:06.485Z,32.96
2018-05-31T15:25:05.588Z,32.87
2018-05-31T15:26:06.487Z,32.83
2018-05-31T15:27:05.990Z,32.77
2018-05-31T15:28:05.988Z,32.78
2018-05-31T15:29:05.342Z,32.65
2018-05-31T15:30:05.270Z,32.65
2018-05-31T15:31:05.986Z,32.73
2018-05-31T15:32:05.155Z,32.68
2018-05-31T15:33:05.081Z,32.78
2018-05-31T15:34:05.995Z,33.22
2018-05-31T15:35:05.494Z,34.39
2018-05-31T15:36:05.585Z,35.27
2018-05-31T15:37:04.829Z,36.14
2018-05-31T15:38:05.490Z,36.68
2018-05-31T15:39:04.704Z,37.02
2018-05-31T15:40:05.491Z,36.30
2018-05-31T15:41:04.581Z,35.76
2018-05-31T15:42:05.504Z,35.17
2018-05-31T15:43:04.456Z,34.71
2018-05-31T15:44:04.397Z,34.20
2018-05-31T15:45:04.996Z,33.92
2018-05-31T15:46:04.269Z,33.67
2018-05-31T15:47:04.278Z,33.42
2018-05-31T15:48:04.993Z,33.22
2018-05-31T15:49:04.081Z,33.11
2018-05-31T15:50:04.159Z,32.80
2018-05-31T15:51:04.493Z,32.59
2018-05-31T15:52:04.499Z,32.43
2018-05-31T15:53:03.838Z,32.27
2018-05-31T15:54:03.772Z,32.09
2018-05-31T15:55:04.494Z,32.07
2018-05-31T15:56:05.526Z,31.93
2018-05-31T15:57:03.607Z,31.81
2018-05-31T15:58:03.518Z,31.61
2018-05-31T15:59:04.017Z,31.58
2018-05-31T16:00:03.395Z,31.49
2018-05-31T16:01:03.329Z,31.44
2018-05-31T16:02:03.263Z,31.33
2018-05-31T16:03:04.028Z,31.28
2018-05-31T16:04:03.138Z,31.25
2018-05-31T16:05:03.082Z,31.10
2018-05-31T16:06:03.010Z,31.02
2018-05-31T16:07:03.521Z,31.05
2018-05-31T16:08:02.884Z,30.91
2018-05-31T16:09:03.500Z,30.94
2018-05-31T16:10:03.504Z,30.84
2018-05-31T16:11:03.501Z,30.75
2018-05-31T16:12:02.626Z,30.63
2018-05-31T16:13:02.578Z,30.69
2018-05-31T16:14:02.495Z,30.55
2018-05-31T16:15:03.006Z,30.50
2018-05-31T16:16:02.377Z,30.35
2018-05-31T16:17:03.026Z,30.31
2018-05-31T16:18:02.244Z,30.31
2018-05-31T16:19:02.172Z,30.19
2018-05-31T16:20:02.168Z,30.06
2018-05-31T16:21:02.046Z,30.02
2018-05-31T16:22:01.975Z,29.91
2018-05-31T16:23:02.505Z,29.88
2018-05-31T16:24:02.504Z,29.76
2018-05-31T16:25:01.778Z,29.76
2018-05-31T16:26:01.716Z,29.71
2018-05-31T16:27:01.656Z,29.66
2018-05-31T16:28:01.585Z,29.61
2018-05-31T16:29:01.519Z,29.60
2018-05-31T16:30:01.452Z,29.54
2018-05-31T16:31:01.389Z,29.60
2018-05-31T16:32:02.010Z,29.47
2018-05-31T16:33:01.257Z,29.41
2018-05-31T16:34:02.014Z,29.44
2018-05-31T16:35:01.131Z,29.26
2018-05-31T16:36:01.065Z,29.19
2018-05-31T16:37:01.010Z,29.23
2018-05-31T16:38:01.510Z,29.19
2018-05-31T16:39:01.509Z,29.14
2018-05-31T16:40:00.798Z,29.04
2018-05-31T16:41:01.513Z,28.98
2018-05-31T16:42:01.524Z,29.07
2018-05-31T16:43:00.601Z,28.97
2018-05-31T16:44:00.557Z,28.91
2018-05-31T16:45:00.474Z,28.85
2018-05-31T16:46:00.402Z,28.88
2018-05-31T16:47:00.333Z,28.76
2018-05-31T16:48:00.268Z,28.84
2018-05-31T16:49:01.027Z,28.74
2018-05-31T16:50:00.140Z,28.75
2018-05-31T16:51:00.075Z,28.70
2018-05-31T16:52:00.016Z,28.69
2018-05-31T16:53:00.519Z,28.70
2018-05-31T16:54:00.514Z,28.67
2018-05-31T16:54:59.812Z,28.62
2018-05-31T16:55:59.737Z,28.59
2018-05-31T16:56:59.671Z,28.62
2018-05-31T16:58:00.518Z,28.64
2018-05-31T16:58:59.537Z,28.60
2018-05-31T17:00:00.020Z,28.51
2018-05-31T17:00:59.403Z,28.57
2018-05-31T17:01:59.337Z,28.49
2018-05-31T17:03:00.017Z,28.52
2018-05-31T17:04:00.020Z,28.48
2018-05-31T17:05:00.024Z,28.32
2018-05-31T17:05:59.071Z,28.35
2018-05-31T17:06:59.004Z,28.29
2018-05-31T17:07:58.939Z,28.30
2018-05-31T17:08:58.882Z,28.19
2018-05-31T17:09:59.520Z,28.22
2018-05-31T17:10:59.539Z,28.22
2018-05-31T17:11:59.521Z,28.14
2018-05-31T17:12:59.559Z,28.19
2018-05-31T17:13:58.542Z,28.15
2018-05-31T17:14:59.088Z,28.19
2018-05-31T17:15:59.031Z,28.11
2018-05-31T17:16:58.346Z,28.15
2018-05-31T17:17:58.276Z,28.17
2018-05-31T17:18:58.208Z,28.10
2018-05-31T17:19:58.138Z,28.12
2018-05-31T17:20:58.069Z,28.10
2018-05-31T17:21:58.010Z,27.95
2018-05-31T17:22:57.936Z,28.08
2018-05-31T17:23:57.868Z,28.08
2018-05-31T17:24:58.525Z,28.02
2018-05-31T17:25:58.528Z,27.98
2018-05-31T17:26:58.530Z,27.95
2018-05-31T17:27:57.602Z,27.96
2018-05-31T17:28:58.527Z,27.95
2018-05-31T17:29:57.474Z,27.93
2018-05-31T17:30:58.116Z,27.92
2018-05-31T17:31:58.028Z,27.85
2018-05-31T17:32:57.270Z,27.73
2018-05-31T17:33:57.201Z,27.78
2018-05-31T17:34:58.112Z,27.68
2018-05-31T17:35:58.035Z,27.71
2018-05-31T17:36:57.528Z,27.64
2018-05-31T17:37:56.930Z,27.60
2018-05-31T17:38:56.864Z,27.47
2018-05-31T17:39:57.530Z,27.32
2018-05-31T17:40:56.727Z,27.33
2018-05-31T17:41:57.531Z,27.25
2018-05-31T17:42:56.617Z,27.05
2018-05-31T17:43:58.036Z,26.80
2018-05-31T17:44:56.460Z,26.75
2018-05-31T17:45:56.390Z,26.58
2018-05-31T17:46:56.323Z,26.55
2018-05-31T17:47:57.035Z,26.26
2018-05-31T17:48:56.188Z,26.05
2018-05-31T17:49:57.033Z,26.02
2018-05-31T17:50:56.058Z,25.87
2018-05-31T17:51:55.986Z,25.87
2018-05-31T17:52:55.919Z,25.77
2018-05-31T17:53:55.862Z,25.77
2018-05-31T17:54:55.790Z,25.69
2018-05-31T17:55:55.736Z,25.66
2018-05-31T17:56:55.647Z,25.63
2018-05-31T17:57:55.580Z,25.48
2018-05-31T17:58:55.510Z,25.51
2018-05-31T17:59:55.469Z,25.40
2018-05-31T18:00:55.373Z,25.36
2018-05-31T18:01:55.322Z,25.36
2018-05-31T18:02:55.272Z,25.36
2018-05-31T18:03:56.039Z,25.40
2018-05-31T18:04:55.101Z,25.36
2018-05-31T18:05:56.038Z,25.40
2018-05-31T18:06:54.987Z,25.28
2018-05-31T18:07:54.900Z,25.31
2018-05-31T18:08:55.541Z,25.33
2018-05-31T18:09:54.768Z,25.25
2018-05-31T18:10:55.540Z,25.32
2018-05-31T18:11:54.625Z,25.31
2018-05-31T18:12:55.544Z,25.31
2018-05-31T18:13:54.493Z,25.28
2018-05-31T18:14:54.415Z,25.31
2018-05-31T18:15:54.347Z,25.29
2018-05-31T18:16:55.543Z,25.22
2018-05-31T18:17:54.209Z,25.22
2018-05-31T18:18:54.149Z,25.22
2018-05-31T18:19:54.072Z,25.16
2018-05-31T18:20:54.005Z,25.14
2018-05-31T18:21:54.544Z,25.17
2018-05-31T18:22:53.882Z,25.07
2018-05-31T18:23:54.549Z,25.08
2018-05-31T18:24:53.733Z,25.11
2018-05-31T18:25:53.666Z,25.21
2018-05-31T18:26:54.547Z,25.03
2018-05-31T18:27:53.543Z,25.01
2018-05-31T18:28:53.467Z,25.07
2018-05-31T18:29:54.058Z,25.03
2018-05-31T18:30:53.325Z,24.89
2018-05-31T18:31:53.248Z,24.89
2018-05-31T18:32:54.057Z,24.85
2018-05-31T18:33:54.050Z,24.89
2018-05-31T18:34:53.573Z,24.86
2018-05-31T18:35:53.550Z,24.81
2018-05-31T18:36:53.554Z,24.69
2018-05-31T18:37:52.833Z,24.68
2018-05-31T18:38:52.768Z,24.66
2018-05-31T18:39:52.697Z,24.55
2018-05-31T18:40:52.635Z,24.29